sensor_id;sensor_type;location;lat;lon;timestamp;pressure;altitude;pressure_sealevel;temperature;humidity
20696;BME280;10507;52.754;13.040;2023-04-09T00:01:22;102323.19;;;2.84;100.00
20696;BME280;10507;52.754;13.040;2023-04-09T00:03:51;102291.38;;;2.68;100.00
20696;BME280;10507;52.754;13.040;2023-04-09T00:06:19;102315.97;;;2.63;100.00
20696;BME280;10507;52.754;13.040;2023-04-09T00:08:47;102313.25;;;2.54;100.00
20696;BME280;10507;52.754;13.040;2023-04-09T00:11:15;102374.88;;;2.65;100.00
20696;BME280;10507;52.754;13.040;2023-04-09T00:13:43;102441.78;;;2.75;100.00
20696;BME280;10507;52.754;13.040;2023-04-09T00:16:11;102476.13;;;2.79;100.00
20696;BME280;10507;52.754;13.040;2023-04-09T00:18:39;102515.78;;;2.85;100.00
20696;BME280;10507;52.754;13.040;2023-04-09T00:21:08;102528.06;;;2.86;100.00
20696;BME280;10507;52.754;13.040;2023-04-09T00:23:37;102533.31;;;2.83;100.00
20696;BME280;10507;52.754;13.040;2023-04-09T00:26:05;102578.25;;;2.89;100.00
20696;BME280;10507;52.754;13.040;2023-04-09T00:28:33;102597.63;;;2.91;100.00
20696;BME280;10507;52.754;13.040;2023-04-09T00:31:01;102574.66;;;2.83;100.00
20696;BME280;10507;52.754;13.040;2023-04-09T00:33:29;102560.44;;;2.73;100.00
20696;BME280;10507;52.754;13.040;2023-04-09T00:35:57;102531.31;;;2.62;100.00
20696;BME280;10507;52.754;13.040;2023-04-09T00:38:26;102526.78;;;2.55;100.00
20696;BME280;10507;52.754;13.040;2023-04-09T00:40:54;102535.53;;;2.49;100.00
20696;BME280;10507;52.754;13.040;2023-04-09T00:43:22;102566.34;;;2.55;100.00
20696;BME280;10507;52.754;13.040;2023-04-09T00:45:50;102601.59;;;2.60;100.00
20696;BME280;10507;52.754;13.040;2023-04-09T00:48:18;102617.41;;;2.62;100.00
20696;BME280;10507;52.754;13.040;2023-04-09T00:50:46;102621.81;;;2.61;100.00
20696;BME280;10507;52.754;13.040;2023-04-09T00:53:15;102627.94;;;2.59;100.00
20696;BME280;10507;52.754;13.040;2023-04-09T00:55:44;102643.78;;;2.62;100.00
20696;BME280;10507;52.754;13.040;2023-04-09T00:58:13;102649.06;;;2.60;100.00
20696;BME280;10507;52.754;13.040;2023-04-09T01:00:41;102629.63;;;2.54;100.00
20696;BME280;10507;52.754;13.040;2023-04-09T01:03:09;102604.00;;;2.45;100.00
20696;BME280;10507;52.754;13.040;2023-04-09T01:08:32;102549.19;;;2.22;100.00
20696;BME280;10507;52.754;13.040;2023-04-09T01:11:15;102560.56;;;2.20;100.00
20696;BME280;10507;52.754;13.040;2023-04-09T01:13:53;102631.03;;;2.33;100.00
20696;BME280;10507;52.754;13.040;2023-04-09T01:16:23;102648.69;;;2.36;100.00
20696;BME280;10507;52.754;13.040;2023-04-09T01:18:55;102624.00;;;2.32;100.00
20696;BME280;10507;52.754;13.040;2023-04-09T01:21:29;102616.91;;;2.28;100.00
20696;BME280;10507;52.754;13.040;2023-04-09T01:24:05;102624.00;;;2.32;100.00
20696;BME280;10507;52.754;13.040;2023-04-09T01:26:50;102611.66;;;2.29;100.00
20696;BME280;10507;52.754;13.040;2023-04-09T01:29:23;102576.38;;;2.21;100.00
20696;BME280;10507;52.754;13.040;2023-04-09T01:31:53;102544.66;;;2.15;100.00
20696;BME280;10507;52.754;13.040;2023-04-09T01:34:22;102505.00;;;2.06;100.00
20696;BME280;10507;52.754;13.040;2023-04-09T01:36:52;102529.66;;;2.10;100.00
20696;BME280;10507;52.754;13.040;2023-04-09T01:39:22;102571.06;;;2.17;100.00
20696;BME280;10507;52.754;13.040;2023-04-09T01:41:50;102598.34;;;2.22;100.00
20696;BME280;10507;52.754;13.040;2023-04-09T01:44:19;102636.31;;;2.32;100.00
20696;BME280;10507;52.754;13.040;2023-04-09T01:46:50;102643.41;;;2.36;100.00
20696;BME280;10507;52.754;13.040;2023-04-09T01:49:18;102700.75;;;2.50;100.00
20696;BME280;10507;52.754;13.040;2023-04-09T01:51:46;102776.78;;;2.76;100.00
20696;BME280;10507;52.754;13.040;2023-04-09T01:54:15;102806.88;;;2.89;100.00
20696;BME280;10507;52.754;13.040;2023-04-09T01:56:44;102810.56;;;2.99;100.00
20696;BME280;10507;52.754;13.040;2023-04-09T01:59:13;102805.28;;;3.00;100.00
20696;BME280;10507;52.754;13.040;2023-04-09T02:01:44;102815.09;;;3.07;100.00
20696;BME280;10507;52.754;13.040;2023-04-09T02:04:20;102806.28;;;3.05;100.00
20696;BME280;10507;52.754;13.040;2023-04-09T02:06:56;102848.66;;;3.16;100.00
20696;BME280;10507;52.754;13.040;2023-04-09T02:09:28;102885.84;;;3.30;100.00
20696;BME280;10507;52.754;13.040;2023-04-09T02:11:57;102890.31;;;3.36;100.00
20696;BME280;10507;52.754;13.040;2023-04-09T02:14:27;102914.22;;;3.45;100.00
20696;BME280;10507;52.754;13.040;2023-04-09T02:16:55;102913.47;;;3.50;100.00
20696;BME280;10507;52.754;13.040;2023-04-09T02:19:37;102921.44;;;3.55;100.00
20696;BME280;10507;52.754;13.040;2023-04-09T02:22:05;102941.84;;;3.64;100.00
20696;BME280;10507;52.754;13.040;2023-04-09T02:24:33;102954.28;;;3.71;100.00
20696;BME280;10507;52.754;13.040;2023-04-09T02:27:02;102947.19;;;3.70;100.00
20696;BME280;10507;52.754;13.040;2023-04-09T02:29:31;102941.88;;;3.67;100.00
20696;BME280;10507;52.754;13.040;2023-04-09T02:32:00;102966.59;;;3.72;100.00
20696;BME280;10507;52.754;13.040;2023-04-09T02:34:29;102976.41;;;3.78;100.00
20696;BME280;10507;52.754;13.040;2023-04-09T02:36:57;102979.13;;;3.82;100.00
20696;BME280;10507;52.754;13.040;2023-04-09T02:39:25;102991.50;;;3.86;100.00
20696;BME280;10507;52.754;13.040;2023-04-09T02:41:53;103004.72;;;3.88;100.00
20696;BME280;10507;52.754;13.040;2023-04-09T02:44:21;102992.44;;;3.88;100.00
20696;BME280;10507;52.754;13.040;2023-04-09T02:46:50;102996.00;;;3.92;100.00
20696;BME280;10507;52.754;13.040;2023-04-09T02:49:18;102980.06;;;3.87;100.00
20696;BME280;10507;52.754;13.040;2023-04-09T02:51:47;102973.91;;;3.87;100.00
20696;BME280;10507;52.754;13.040;2023-04-09T02:54:15;102981.00;;;3.91;100.00
20696;BME280;10507;52.754;13.040;2023-04-09T02:56:42;102965.09;;;3.86;100.00
20696;BME280;10507;52.754;13.040;2023-04-09T02:59:10;102986.34;;;3.94;100.00
20696;BME280;10507;52.754;13.040;2023-04-09T03:01:38;102987.25;;;3.96;100.00
20696;BME280;10507;52.754;13.040;2023-04-09T03:04:06;102989.03;;;3.97;100.00
20696;BME280;10507;52.754;13.040;2023-04-09T03:06:34;103000.59;;;4.04;100.00
20696;BME280;10507;52.754;13.040;2023-04-09T03:09:03;103002.44;;;4.09;100.00
20696;BME280;10507;52.754;13.040;2023-04-09T03:11:31;102991.78;;;4.05;100.00
20696;BME280;10507;52.754;13.040;2023-04-09T03:13:59;103008.63;;;4.11;100.00
20696;BME280;10507;52.754;13.040;2023-04-09T03:16:27;103019.25;;;4.13;100.00
20696;BME280;10507;52.754;13.040;2023-04-09T03:18:55;103030.78;;;4.20;100.00
20696;BME280;10507;52.754;13.040;2023-04-09T03:21:23;103035.25;;;4.25;100.00
20696;BME280;10507;52.754;13.040;2023-04-09T03:23:53;103029.13;;;4.26;100.00
20696;BME280;10507;52.754;13.040;2023-04-09T03:26:22;103024.66;;;4.24;100.00
20696;BME280;10507;52.754;13.040;2023-04-09T03:28:50;103026.47;;;4.28;100.00
20696;BME280;10507;52.754;13.040;2023-04-09T03:31:18;103022.06;;;4.27;100.00
20696;BME280;10507;52.754;13.040;2023-04-09T03:33:46;103031.88;;;4.34;100.00
20696;BME280;10507;52.754;13.040;2023-04-09T03:36:14;103046.03;;;4.39;100.00
20696;BME280;10507;52.754;13.040;2023-04-09T03:38:42;103030.09;;;4.34;100.00
20696;BME280;10507;52.754;13.040;2023-04-09T03:41:09;103030.13;;;4.36;100.00
20696;BME280;10507;52.754;13.040;2023-04-09T03:43:39;103015.16;;;4.35;100.00
20696;BME280;10507;52.754;13.040;2023-04-09T03:46:10;103023.16;;;4.41;100.00
20696;BME280;10507;52.754;13.040;2023-04-09T03:48:38;103005.44;;;4.37;100.00
20696;BME280;10507;52.754;13.040;2023-04-09T03:51:10;103018.75;;;4.40;100.00
20696;BME280;10507;52.754;13.040;2023-04-09T03:53:39;103032.06;;;4.46;100.00
20696;BME280;10507;52.754;13.040;2023-04-09T03:56:09;103038.22;;;4.48;100.00
20696;BME280;10507;52.754;13.040;2023-04-09T03:58:37;103049.78;;;4.53;100.00
20696;BME280;10507;52.754;13.040;2023-04-09T04:01:06;102981.66;;;4.37;100.00
20696;BME280;10507;52.754;13.040;2023-04-09T04:03:34;103022.38;;;4.50;100.00
20696;BME280;10507;52.754;13.040;2023-04-09T04:06:03;103032.16;;;4.54;100.00
20696;BME280;10507;52.754;13.040;2023-04-09T04:08:31;103003.84;;;4.48;100.00
20696;BME280;10507;52.754;13.040;2023-04-09T04:11:02;103019.81;;;4.54;100.00
20696;BME280;10507;52.754;13.040;2023-04-09T04:13:30;103028.69;;;4.59;100.00
20696;BME280;10507;52.754;13.040;2023-04-09T04:15:58;103050.00;;;4.69;100.00
20696;BME280;10507;52.754;13.040;2023-04-09T04:18:27;103047.34;;;4.69;100.00
20696;BME280;10507;52.754;13.040;2023-04-09T04:20:55;103051.78;;;4.73;100.00
20696;BME280;10507;52.754;13.040;2023-04-09T04:23:23;103061.53;;;4.77;100.00
20696;BME280;10507;52.754;13.040;2023-04-09T04:25:51;103063.31;;;4.76;100.00
20696;BME280;10507;52.754;13.040;2023-04-09T04:28:19;103056.31;;;4.80;100.00
20696;BME280;10507;52.754;13.040;2023-04-09T04:30:47;103053.66;;;4.82;100.00
20696;BME280;10507;52.754;13.040;2023-04-09T04:33:15;103044.81;;;4.78;100.00
20696;BME280;10507;52.754;13.040;2023-04-09T04:35:44;103043.06;;;4.82;100.00
20696;BME280;10507;52.754;13.040;2023-04-09T04:38:13;103044.03;;;4.85;100.00
20696;BME280;10507;52.754;13.040;2023-04-09T04:40:41;103051.09;;;4.88;100.00
20696;BME280;10507;52.754;13.040;2023-04-09T04:43:09;103043.13;;;4.86;100.00
20696;BME280;10507;52.754;13.040;2023-04-09T04:45:36;103025.50;;;4.85;100.00
20696;BME280;10507;52.754;13.040;2023-04-09T04:48:04;103047.66;;;4.93;100.00
20696;BME280;10507;52.754;13.040;2023-04-09T04:50:32;103028.19;;;4.90;100.00
20696;BME280;10507;52.754;13.040;2023-04-09T04:53:01;103015.84;;;4.89;100.00
20696;BME280;10507;52.754;13.040;2023-04-09T04:55:29;103032.69;;;4.97;100.00
20696;BME280;10507;52.754;13.040;2023-04-09T04:57:57;103015.91;;;4.96;100.00
20696;BME280;10507;52.754;13.040;2023-04-09T05:00:25;103012.38;;;4.96;100.00
20696;BME280;10507;52.754;13.040;2023-04-09T05:02:53;103046.03;;;5.05;100.00
20696;BME280;10507;52.754;13.040;2023-04-09T05:05:21;103012.41;;;4.99;100.00
20696;BME280;10507;52.754;13.040;2023-04-09T05:07:50;103021.22;;;4.99;100.00
20696;BME280;10507;52.754;13.040;2023-04-09T05:10:19;103041.59;;;5.04;100.00
20696;BME280;10507;52.754;13.040;2023-04-09T05:12:47;103073.50;;;5.17;100.00
20696;BME280;10507;52.754;13.040;2023-04-09T05:15:15;103075.31;;;5.20;100.00
20696;BME280;10507;52.754;13.040;2023-04-09T05:17:43;103061.22;;;5.24;100.00
20696;BME280;10507;52.754;13.040;2023-04-09T05:20:11;103025.00;;;5.20;100.00
20696;BME280;10507;52.754;13.040;2023-04-09T05:22:39;103012.66;;;5.22;100.00
20696;BME280;10507;52.754;13.040;2023-04-09T05:25:07;102990.56;;;5.20;100.00
20696;BME280;10507;52.754;13.040;2023-04-09T05:27:37;102986.19;;;5.24;100.00
20696;BME280;10507;52.754;13.040;2023-04-09T05:30:06;102997.72;;;5.27;100.00
20696;BME280;10507;52.754;13.040;2023-04-09T05:32:34;102996.91;;;5.36;100.00
20696;BME280;10507;52.754;13.040;2023-04-09T05:35:03;102956.28;;;5.34;100.00
20696;BME280;10507;52.754;13.040;2023-04-09T05:37:31;102953.69;;;5.38;100.00
20696;BME280;10507;52.754;13.040;2023-04-09T05:39:59;102932.47;;;5.40;100.00
20696;BME280;10507;52.754;13.040;2023-04-09T05:42:27;102879.41;;;5.26;100.00
20696;BME280;10507;52.754;13.040;2023-04-09T05:44:56;102878.53;;;5.29;100.00
20696;BME280;10507;52.754;13.040;2023-04-09T05:47:24;102889.19;;;5.35;100.00
20696;BME280;10507;52.754;13.040;2023-04-09T05:49:52;102901.63;;;5.47;100.00
20696;BME280;10507;52.754;13.040;2023-04-09T05:52:20;102847.72;;;5.38;100.00
20696;BME280;10507;52.754;13.040;2023-04-09T05:54:48;102818.56;;;5.38;100.00
20696;BME280;10507;52.754;13.040;2023-04-09T05:57:16;102827.41;;;5.42;100.00
20696;BME280;10507;52.754;13.040;2023-04-09T05:59:44;102796.50;;;5.39;100.00
20696;BME280;10507;52.754;13.040;2023-04-09T06:02:13;102814.19;;;5.47;100.00
20696;BME280;10507;52.754;13.040;2023-04-09T06:04:41;102824.84;;;5.50;100.00
20696;BME280;10507;52.754;13.040;2023-04-09T06:07:09;102831.03;;;5.58;100.00
20696;BME280;10507;52.754;13.040;2023-04-09T06:09:37;102801.91;;;5.56;100.00
20696;BME280;10507;52.754;13.040;2023-04-09T06:12:05;102791.28;;;5.55;100.00
20696;BME280;10507;52.754;13.040;2023-04-09T06:14:33;102793.97;;;5.61;100.00
20696;BME280;10507;52.754;13.040;2023-04-09T06:17:01;102801.06;;;5.68;100.00
20696;BME280;10507;52.754;13.040;2023-04-09T06:19:30;102791.38;;;5.70;100.00
20696;BME280;10507;52.754;13.040;2023-04-09T06:21:58;102767.50;;;5.67;100.00
20696;BME280;10507;52.754;13.040;2023-04-09T06:24:26;102794.91;;;5.78;100.00
20696;BME280;10507;52.754;13.040;2023-04-09T06:26:54;102780.81;;;5.79;100.00
20696;BME280;10507;52.754;13.040;2023-04-09T06:29:22;102787.03;;;5.88;100.00
20696;BME280;10507;52.754;13.040;2023-04-09T06:31:50;102786.22;;;5.95;100.00
20696;BME280;10507;52.754;13.040;2023-04-09T06:34:18;102723.41;;;5.86;100.00
20696;BME280;10507;52.754;13.040;2023-04-09T06:36:47;102767.69;;;6.01;100.00
20696;BME280;10507;52.754;13.040;2023-04-09T06:39:15;102719.91;;;5.96;100.00
20696;BME280;10507;52.754;13.040;2023-04-09T06:41:43;102712.84;;;5.98;100.00
20696;BME280;10507;52.754;13.040;2023-04-09T06:44:12;102643.00;;;5.86;100.00
20696;BME280;10507;52.754;13.040;2023-04-09T06:46:40;102648.28;;;5.84;100.00
20696;BME280;10507;52.754;13.040;2023-04-09T06:49:08;102635.03;;;5.84;100.00
20696;BME280;10507;52.754;13.040;2023-04-09T06:51:36;102655.41;;;5.96;100.00
20696;BME280;10507;52.754;13.040;2023-04-09T06:54:05;102673.97;;;6.07;100.00
20696;BME280;10507;52.754;13.040;2023-04-09T06:56:33;102653.66;;;6.04;100.00
20696;BME280;10507;52.754;13.040;2023-04-09T06:59:01;102672.22;;;6.13;100.00
20696;BME280;10507;52.754;13.040;2023-04-09T07:01:30;102650.09;;;6.10;100.00
20696;BME280;10507;52.754;13.040;2023-04-09T07:03:58;102621.84;;;6.06;100.00
20696;BME280;10507;52.754;13.040;2023-04-09T07:06:26;102661.63;;;6.27;100.00
20696;BME280;10507;52.754;13.040;2023-04-09T07:08:54;102589.13;;;6.13;100.00
20696;BME280;10507;52.754;13.040;2023-04-09T07:11:23;102598.88;;;6.12;100.00
20696;BME280;10507;52.754;13.040;2023-04-09T07:13:52;102642.16;;;6.31;100.00
20696;BME280;10507;52.754;13.040;2023-04-09T07:16:22;102597.94;;;6.21;100.00
20696;BME280;10507;52.754;13.040;2023-04-09T07:18:50;102567.03;;;6.15;100.00
20696;BME280;10507;52.754;13.040;2023-04-09T07:21:17;102582.06;;;6.19;100.00
20696;BME280;10507;52.754;13.040;2023-04-09T07:23:45;102581.19;;;6.23;100.00
20696;BME280;10507;52.754;13.040;2023-04-09T07:26:13;102598.84;;;6.31;100.00
20696;BME280;10507;52.754;13.040;2023-04-09T07:28:43;102572.31;;;6.28;100.00
20696;BME280;10507;52.754;13.040;2023-04-09T07:31:11;102572.31;;;6.32;100.00
20696;BME280;10507;52.754;13.040;2023-04-09T07:33:39;102597.94;;;6.44;100.00
20696;BME280;10507;52.754;13.040;2023-04-09T07:36:07;102544.03;;;6.33;100.00
20696;BME280;10507;52.754;13.040;2023-04-09T07:38:35;102549.31;;;6.31;100.00
20696;BME280;10507;52.754;13.040;2023-04-09T07:41:03;102601.47;;;6.49;100.00
20696;BME280;10507;52.754;13.040;2023-04-09T07:43:31;102567.88;;;6.51;100.00
20696;BME280;10507;52.754;13.040;2023-04-09T07:46:00;102539.56;;;6.52;100.00
20696;BME280;10507;52.754;13.040;2023-04-09T07:48:28;102505.09;;;6.38;100.00
20696;BME280;10507;52.754;13.040;2023-04-09T07:50:57;102516.63;;;6.37;100.00
20696;BME280;10507;52.754;13.040;2023-04-09T07:53:25;102521.03;;;6.32;100.00
20696;BME280;10507;52.754;13.040;2023-04-09T07:55:52;102522.78;;;6.36;100.00
20696;BME280;10507;52.754;13.040;2023-04-09T07:58:21;102540.47;;;6.40;100.00
20696;BME280;10507;52.754;13.040;2023-04-09T08:00:49;102530.75;;;6.36;100.00
20696;BME280;10507;52.754;13.040;2023-04-09T08:03:18;102545.78;;;6.37;100.00
20696;BME280;10507;52.754;13.040;2023-04-09T08:05:47;102574.06;;;6.44;100.00
20696;BME280;10507;52.754;13.040;2023-04-09T08:08:15;102595.28;;;6.53;100.00
20696;BME280;10507;52.754;13.040;2023-04-09T08:10:44;102596.16;;;6.60;100.00
20696;BME280;10507;52.754;13.040;2023-04-09T08:13:12;102567.84;;;6.59;100.00
20696;BME280;10507;52.754;13.040;2023-04-09T08:15:40;102551.03;;;6.61;100.00
20696;BME280;10507;52.754;13.040;2023-04-09T08:18:08;102480.31;;;6.45;100.00
20696;BME280;10507;52.754;13.040;2023-04-09T08:20:37;102542.19;;;6.64;100.00
20696;BME280;10507;52.754;13.040;2023-04-09T08:23:10;102571.34;;;6.73;100.00
20696;BME280;10507;52.754;13.040;2023-04-09T08:25:38;102585.44;;;6.86;100.00
20696;BME280;10507;52.754;13.040;2023-04-09T08:28:06;102474.94;;;6.59;100.00
20696;BME280;10507;52.754;13.040;2023-04-09T08:30:34;102490.91;;;6.51;100.00
20696;BME280;10507;52.754;13.040;2023-04-09T08:33:03;102480.28;;;6.51;100.00
20696;BME280;10507;52.754;13.040;2023-04-09T08:35:31;102516.53;;;6.61;100.00
20696;BME280;10507;52.754;13.040;2023-04-09T08:38:00;102577.53;;;6.80;100.00
20696;BME280;10507;52.754;13.040;2023-04-09T08:40:33;102495.28;;;6.66;100.00
20696;BME280;10507;52.754;13.040;2023-04-09T08:43:04;102543.94;;;6.73;100.00
20696;BME280;10507;52.754;13.040;2023-04-09T08:45:32;102513.84;;;6.71;100.00
20696;BME280;10507;52.754;13.040;2023-04-09T08:48:01;102527.09;;;6.75;100.00
20696;BME280;10507;52.754;13.040;2023-04-09T08:50:30;102560.69;;;6.87;100.00
20696;BME280;10507;52.754;13.040;2023-04-09T08:53:02;102585.44;;;6.95;100.00
20696;BME280;10507;52.754;13.040;2023-04-09T08:55:31;102604.84;;;7.10;100.00
20696;BME280;10507;52.754;13.040;2023-04-09T08:58:03;102619.84;;;7.24;100.00
20696;BME280;10507;52.754;13.040;2023-04-09T09:00:31;102596.78;;;7.28;100.00
20696;BME280;10507;52.754;13.040;2023-04-09T09:03:03;102614.38;;;7.50;100.00
20696;BME280;10507;52.754;13.040;2023-04-09T09:05:36;102573.59;;;7.55;100.00
20696;BME280;10507;52.754;13.040;2023-04-09T09:08:06;102541.69;;;7.59;100.00
20696;BME280;10507;52.754;13.040;2023-04-09T09:10:39;102498.31;;;7.56;100.00
20696;BME280;10507;52.754;13.040;2023-04-09T09:13:18;102495.56;;;7.65;100.00
20696;BME280;10507;52.754;13.040;2023-04-09T09:15:47;102498.19;;;7.69;100.00
20696;BME280;10507;52.754;13.040;2023-04-09T09:18:16;102426.50;;;7.57;100.00
20696;BME280;10507;52.754;13.040;2023-04-09T09:20:44;102373.63;;;7.28;100.00
20696;BME280;10507;52.754;13.040;2023-04-09T09:23:13;102416.91;;;7.41;100.00
20696;BME280;10507;52.754;13.040;2023-04-09T09:25:41;102414.25;;;7.39;100.00
20696;BME280;10507;52.754;13.040;2023-04-09T09:28:11;102438.19;;;7.39;100.00
20696;BME280;10507;52.754;13.040;2023-04-09T09:30:39;102427.53;;;7.39;100.00
20696;BME280;10507;52.754;13.040;2023-04-09T09:33:08;102448.69;;;7.55;100.00
20696;BME280;10507;52.754;13.040;2023-04-09T09:35:46;102460.94;;;7.71;100.00
20696;BME280;10507;52.754;13.040;2023-04-09T09:38:16;102412.28;;;7.63;100.00
20696;BME280;10507;52.754;13.040;2023-04-09T09:40:45;102457.31;;;7.83;100.00
20696;BME280;10507;52.754;13.040;2023-04-09T09:43:13;102420.09;;;7.80;100.00
20696;BME280;10507;52.754;13.040;2023-04-09T09:45:41;102454.47;;;8.03;100.00
20696;BME280;10507;52.754;13.040;2023-04-09T09:48:11;102388.06;;;7.92;100.00
20696;BME280;10507;52.754;13.040;2023-04-09T09:50:40;102423.28;;;8.14;100.00
20696;BME280;10507;52.754;13.040;2023-04-09T09:53:10;102395.81;;;8.12;100.00
20696;BME280;10507;52.754;13.040;2023-04-09T09:55:40;102339.28;;;7.95;100.00
20696;BME280;10507;52.754;13.040;2023-04-09T09:58:15;102311.13;;;7.75;100.00
20696;BME280;10507;52.754;13.040;2023-04-09T10:00:45;102271.34;;;7.67;100.00
20696;BME280;10507;52.754;13.040;2023-04-09T10:03:19;102339.44;;;7.79;100.00
20696;BME280;10507;52.754;13.040;2023-04-09T10:05:48;102319.09;;;7.75;100.00
20696;BME280;10507;52.754;13.040;2023-04-09T10:08:20;102325.44;;;7.63;100.00
20696;BME280;10507;52.754;13.040;2023-04-09T10:10:51;102277.75;;;7.49;100.00
20696;BME280;10507;52.754;13.040;2023-04-09T10:13:22;102315.72;;;7.62;100.00
20696;BME280;10507;52.754;13.040;2023-04-09T10:15:52;102305.91;;;7.66;100.00
20696;BME280;10507;52.754;13.040;2023-04-09T10:18:21;102342.22;;;7.72;100.00
20696;BME280;10507;52.754;13.040;2023-04-09T10:20:53;102317.53;;;7.59;100.00
20696;BME280;10507;52.754;13.040;2023-04-09T10:23:31;102441.25;;;7.92;100.00
20696;BME280;10507;52.754;13.040;2023-04-09T10:26:02;102374.00;;;7.81;100.00
20696;BME280;10507;52.754;13.040;2023-04-09T10:28:31;102399.63;;;7.86;100.00
20696;BME280;10507;52.754;13.040;2023-04-09T10:30:59;102358.94;;;7.81;100.00
20696;BME280;10507;52.754;13.040;2023-04-09T10:33:28;102400.38;;;8.01;100.00
20696;BME280;10507;52.754;13.040;2023-04-09T10:35:59;102349.91;;;7.95;100.00
20696;BME280;10507;52.754;13.040;2023-04-09T10:38:34;102425.88;;;8.20;100.00
20696;BME280;10507;52.754;13.040;2023-04-09T10:41:09;102358.47;;;8.18;100.00
20696;BME280;10507;52.754;13.040;2023-04-09T10:43:40;102308.03;;;8.12;100.00
20696;BME280;10507;52.754;13.040;2023-04-09T10:46:24;102391.13;;;8.32;100.00
20696;BME280;10507;52.754;13.040;2023-04-09T10:49:08;102289.31;;;8.18;100.00
20696;BME280;10507;52.754;13.040;2023-04-09T10:51:37;102278.44;;;8.33;100.00
20696;BME280;10507;52.754;13.040;2023-04-09T10:54:05;102329.84;;;8.39;100.00
20696;BME280;10507;52.754;13.040;2023-04-09T10:56:34;102305.88;;;8.43;100.00
20696;BME280;10507;52.754;13.040;2023-04-09T10:59:02;102282.84;;;8.38;100.00
20696;BME280;10507;52.754;13.040;2023-04-09T11:01:30;102343.81;;;8.58;100.00
20696;BME280;10507;52.754;13.040;2023-04-09T11:04:08;102266.66;;;8.53;100.00
20696;BME280;10507;52.754;13.040;2023-04-09T11:06:43;102290.69;;;8.48;100.00
20696;BME280;10507;52.754;13.040;2023-04-09T11:09:12;102296.69;;;8.63;100.00
20696;BME280;10507;52.754;13.040;2023-04-09T11:11:41;102331.09;;;8.77;100.00
20696;BME280;10507;52.754;13.040;2023-04-09T11:14:09;102361.69;;;9.07;100.00
20696;BME280;10507;52.754;13.040;2023-04-09T11:16:37;102218.16;;;8.88;100.00
20696;BME280;10507;52.754;13.040;2023-04-09T11:19:05;102136.69;;;8.77;100.00
20696;BME280;10507;52.754;13.040;2023-04-09T11:21:33;102185.44;;;8.82;100.00
20696;BME280;10507;52.754;13.040;2023-04-09T11:24:01;102254.34;;;9.00;100.00
20696;BME280;10507;52.754;13.040;2023-04-09T11:26:34;102328.25;;;9.42;100.00
20696;BME280;10507;52.754;13.040;2023-04-09T11:29:05;102290.59;;;9.58;100.00
20696;BME280;10507;52.754;13.040;2023-04-09T11:31:34;102214.28;;;9.51;100.00
20696;BME280;10507;52.754;13.040;2023-04-09T11:34:02;102124.63;;;9.46;98.96
20696;BME280;10507;52.754;13.040;2023-04-09T11:36:33;102100.72;;;9.43;98.76
20696;BME280;10507;52.754;13.040;2023-04-09T11:39:01;102068.13;;;9.30;98.78
20696;BME280;10507;52.754;13.040;2023-04-09T11:41:32;102231.59;;;9.74;99.37
20696;BME280;10507;52.754;13.040;2023-04-09T11:44:01;102087.09;;;9.55;98.22
20696;BME280;10507;52.754;13.040;2023-04-09T11:46:32;102035.09;;;9.37;98.18
20696;BME280;10507;52.754;13.040;2023-04-09T11:49:00;102059.22;;;9.31;99.02
20696;BME280;10507;52.754;13.040;2023-04-09T11:51:29;102056.63;;;9.28;98.54
20696;BME280;10507;52.754;13.040;2023-04-09T11:54:00;102060.00;;;9.36;98.10
20696;BME280;10507;52.754;13.040;2023-04-09T11:56:29;102092.84;;;9.36;97.97
20696;BME280;10507;52.754;13.040;2023-04-09T11:58:58;102004.91;;;9.36;97.21
20696;BME280;10507;52.754;13.040;2023-04-09T12:01:29;102160.59;;;9.68;97.83
20696;BME280;10507;52.754;13.040;2023-04-09T12:04:00;102142.09;;;9.99;96.23
20696;BME280;10507;52.754;13.040;2023-04-09T12:06:28;102046.03;;;9.99;95.59
20696;BME280;10507;52.754;13.040;2023-04-09T12:08:58;102055.75;;;10.02;95.72
20696;BME280;10507;52.754;13.040;2023-04-09T12:11:28;102088.72;;;10.37;94.44
20696;BME280;10507;52.754;13.040;2023-04-09T12:14:00;102082.25;;;10.47;94.01
20696;BME280;10507;52.754;13.040;2023-04-09T12:16:29;102116.50;;;10.64;93.83
20696;BME280;10507;52.754;13.040;2023-04-09T12:19:01;102005.84;;;10.73;92.94
20696;BME280;10507;52.754;13.040;2023-04-09T12:21:44;101875.13;;;10.67;91.81
20696;BME280;10507;52.754;13.040;2023-04-09T12:24:13;101829.63;;;10.42;92.53
20696;BME280;10507;52.754;13.040;2023-04-09T12:26:42;101904.19;;;10.16;94.17
20696;BME280;10507;52.754;13.040;2023-04-09T12:29:10;102020.59;;;10.55;94.58
20696;BME280;10507;52.754;13.040;2023-04-09T12:31:37;101921.94;;;10.17;94.48
20696;BME280;10507;52.754;13.040;2023-04-09T12:34:07;101929.53;;;10.33;93.86
20696;BME280;10507;52.754;13.040;2023-04-09T12:36:37;102021.00;;;10.41;94.56
20696;BME280;10507;52.754;13.040;2023-04-09T12:39:05;101974.47;;;10.50;94.60
20696;BME280;10507;52.754;13.040;2023-04-09T12:41:33;101894.44;;;10.47;93.94
20696;BME280;10507;52.754;13.040;2023-04-09T12:44:01;101977.44;;;10.70;94.07
20696;BME280;10507;52.754;13.040;2023-04-09T12:46:29;101959.50;;;10.74;93.24
20696;BME280;10507;52.754;13.040;2023-04-09T12:48:58;101722.66;;;10.18;93.02
20696;BME280;10507;52.754;13.040;2023-04-09T12:51:27;101802.06;;;10.10;94.04
20696;BME280;10507;52.754;13.040;2023-04-09T12:53:56;101710.53;;;9.78;94.24